sensor_id;sensor_type;location;lat;lon;timestamp;P1;durP1;ratioP1;P2;durP2;ratioP2
47429;SDS011;33181;49.246;7.372;2022-10-22T00:02:22;9.57;;;6.63;;
47429;SDS011;33181;49.246;7.372;2022-10-22T00:04:48;18.57;;;7.83;;
47429;SDS011;33181;49.246;7.372;2022-10-22T00:07:17;11.00;;;7.60;;
47429;SDS011;33181;49.246;7.372;2022-10-22T00:09:44;11.67;;;8.50;;
47429;SDS011;33181;49.246;7.372;2022-10-22T00:12:11;18.13;;;9.30;;
47429;SDS011;33181;49.246;7.372;2022-10-22T00:14:39;13.57;;;7.80;;
47429;SDS011;33181;49.246;7.372;2022-10-22T00:17:06;14.13;;;7.63;;
47429;SDS011;33181;49.246;7.372;2022-10-22T00:19:32;10.67;;;7.20;;
47429;SDS011;33181;49.246;7.372;2022-10-22T00:21:58;10.73;;;6.63;;
47429;SDS011;33181;49.246;7.372;2022-10-22T00:24:24;11.23;;;6.33;;
47429;SDS011;33181;49.246;7.372;2022-10-22T00:26:50;13.13;;;7.10;;
47429;SDS011;33181;49.246;7.372;2022-10-22T00:29:16;8.23;;;5.93;;
47429;SDS011;33181;49.246;7.372;2022-10-22T00:31:44;9.67;;;5.83;;
47429;SDS011;33181;49.246;7.372;2022-10-22T00:34:14;8.40;;;3.70;;
47429;SDS011;33181;49.246;7.372;2022-10-22T00:36:42;6.17;;;4.53;;
47429;SDS011;33181;49.246;7.372;2022-10-22T00:39:08;5.60;;;3.63;;
47429;SDS011;33181;49.246;7.372;2022-10-22T00:41:34;13.23;;;3.70;;
47429;SDS011;33181;49.246;7.372;2022-10-22T00:44:01;6.30;;;4.50;;
47429;SDS011;33181;49.246;7.372;2022-10-22T00:46:29;7.10;;;4.53;;
47429;SDS011;33181;49.246;7.372;2022-10-22T00:48:55;11.83;;;5.03;;
47429;SDS011;33181;49.246;7.372;2022-10-22T00:51:27;8.87;;;4.30;;
47429;SDS011;33181;49.246;7.372;2022-10-22T00:54:00;7.90;;;5.70;;
47429;SDS011;33181;49.246;7.372;2022-10-22T00:56:31;7.07;;;3.60;;
47429;SDS011;33181;49.246;7.372;2022-10-22T00:58:58;6.60;;;3.60;;
47429;SDS011;33181;49.246;7.372;2022-10-22T01:01:29;8.20;;;3.70;;
47429;SDS011;33181;49.246;7.372;2022-10-22T01:03:56;6.50;;;4.83;;
47429;SDS011;33181;49.246;7.372;2022-10-22T01:06:24;7.07;;;5.03;;
47429;SDS011;33181;49.246;7.372;2022-10-22T01:18:03;6.97;;;3.70;;
47429;SDS011;33181;49.246;7.372;2022-10-22T01:23:43;5.93;;;3.57;;
47429;SDS011;33181;49.246;7.372;2022-10-22T01:30:09;5.60;;;4.13;;
47429;SDS011;33181;49.246;7.372;2022-10-22T01:35:36;5.17;;;3.00;;
47429;SDS011;33181;49.246;7.372;2022-10-22T01:38:08;6.70;;;2.90;;
47429;SDS011;33181;49.246;7.372;2022-10-22T01:40:39;4.87;;;2.50;;
47429;SDS011;33181;49.246;7.372;2022-10-22T01:43:07;5.13;;;2.40;;
47429;SDS011;33181;49.246;7.372;2022-10-22T01:45:36;4.67;;;2.70;;
47429;SDS011;33181;49.246;7.372;2022-10-22T01:57:28;4.47;;;2.30;;
47429;SDS011;33181;49.246;7.372;2022-10-22T02:00:20;3.40;;;2.40;;
47429;SDS011;33181;49.246;7.372;2022-10-22T02:02:47;2.60;;;2.10;;
47429;SDS011;33181;49.246;7.372;2022-10-22T02:05:44;4.30;;;2.50;;
47429;SDS011;33181;49.246;7.372;2022-10-22T02:08:22;4.57;;;2.30;;
47429;SDS011;33181;49.246;7.372;2022-10-22T02:10:55;2.80;;;2.13;;
47429;SDS011;33181;49.246;7.372;2022-10-22T02:13:57;2.80;;;2.33;;
47429;SDS011;33181;49.246;7.372;2022-10-22T02:16:38;4.17;;;2.00;;
47429;SDS011;33181;49.246;7.372;2022-10-22T02:19:24;5.80;;;2.30;;
47429;SDS011;33181;49.246;7.372;2022-10-22T02:21:59;5.33;;;2.97;;
47429;SDS011;33181;49.246;7.372;2022-10-22T02:24:25;3.03;;;2.20;;
47429;SDS011;33181;49.246;7.372;2022-10-22T02:29:43;3.57;;;1.90;;
47429;SDS011;33181;49.246;7.372;2022-10-22T02:32:15;5.90;;;2.13;;
47429;SDS011;33181;49.246;7.372;2022-10-22T02:34:45;3.00;;;2.20;;
47429;SDS011;33181;49.246;7.372;2022-10-22T02:37:13;6.47;;;2.00;;
47429;SDS011;33181;49.246;7.372;2022-10-22T02:39:40;5.30;;;2.33;;
47429;SDS011;33181;49.246;7.372;2022-10-22T02:42:07;3.23;;;2.10;;
47429;SDS011;33181;49.246;7.372;2022-10-22T02:44:33;3.50;;;2.37;;
47429;SDS011;33181;49.246;7.372;2022-10-22T02:46:59;3.33;;;2.60;;
47429;SDS011;33181;49.246;7.372;2022-10-22T02:49:25;2.93;;;2.30;;
47429;SDS011;33181;49.246;7.372;2022-10-22T02:51:51;6.00;;;2.13;;
47429;SDS011;33181;49.246;7.372;2022-10-22T02:54:16;4.70;;;2.27;;
47429;SDS011;33181;49.246;7.372;2022-10-22T02:56:42;4.13;;;2.10;;
47429;SDS011;33181;49.246;7.372;2022-10-22T02:59:08;4.10;;;2.40;;
47429;SDS011;33181;49.246;7.372;2022-10-22T03:01:34;5.70;;;2.30;;
47429;SDS011;33181;49.246;7.372;2022-10-22T03:03:59;4.30;;;2.07;;
47429;SDS011;33181;49.246;7.372;2022-10-22T03:06:25;6.20;;;2.23;;
47429;SDS011;33181;49.246;7.372;2022-10-22T03:08:51;5.00;;;2.70;;
47429;SDS011;33181;49.246;7.372;2022-10-22T03:11:17;2.67;;;2.10;;
47429;SDS011;33181;49.246;7.372;2022-10-22T03:13:42;2.90;;;2.00;;
47429;SDS011;33181;49.246;7.372;2022-10-22T03:16:08;3.20;;;2.07;;
47429;SDS011;33181;49.246;7.372;2022-10-22T03:18:34;4.73;;;2.23;;
47429;SDS011;33181;49.246;7.372;2022-10-22T03:21:05;12.93;;;2.30;;
47429;SDS011;33181;49.246;7.372;2022-10-22T03:24:06;6.90;;;2.37;;
47429;SDS011;33181;49.246;7.372;2022-10-22T03:26:37;7.20;;;2.47;;
47429;SDS011;33181;49.246;7.372;2022-10-22T03:29:05;3.43;;;2.20;;
47429;SDS011;33181;49.246;7.372;2022-10-22T03:31:31;3.53;;;1.90;;
47429;SDS011;33181;49.246;7.372;2022-10-22T03:33:57;3.33;;;2.60;;
47429;SDS011;33181;49.246;7.372;2022-10-22T03:36:23;3.60;;;1.87;;
47429;SDS011;33181;49.246;7.372;2022-10-22T03:38:49;5.70;;;1.97;;
47429;SDS011;33181;49.246;7.372;2022-10-22T03:41:15;3.63;;;1.93;;
47429;SDS011;33181;49.246;7.372;2022-10-22T03:43:41;5.17;;;1.97;;
47429;SDS011;33181;49.246;7.372;2022-10-22T03:46:07;3.53;;;2.00;;
47429;SDS011;33181;49.246;7.372;2022-10-22T03:48:32;4.53;;;2.00;;
47429;SDS011;33181;49.246;7.372;2022-10-22T03:50:58;3.90;;;2.20;;
47429;SDS011;33181;49.246;7.372;2022-10-22T03:53:24;3.20;;;2.00;;
47429;SDS011;33181;49.246;7.372;2022-10-22T03:55:50;3.53;;;2.13;;
47429;SDS011;33181;49.246;7.372;2022-10-22T03:58:15;3.60;;;2.00;;
47429;SDS011;33181;49.246;7.372;2022-10-22T04:00:41;3.47;;;2.00;;
47429;SDS011;33181;49.246;7.372;2022-10-22T04:03:07;3.30;;;1.87;;
47429;SDS011;33181;49.246;7.372;2022-10-22T04:05:33;3.87;;;2.00;;
47429;SDS011;33181;49.246;7.372;2022-10-22T04:07:58;2.40;;;2.00;;
47429;SDS011;33181;49.246;7.372;2022-10-22T04:10:24;2.73;;;1.93;;
47429;SDS011;33181;49.246;7.372;2022-10-22T04:12:50;3.00;;;2.00;;
47429;SDS011;33181;49.246;7.372;2022-10-22T04:15:16;4.47;;;2.07;;
47429;SDS011;33181;49.246;7.372;2022-10-22T04:17:42;5.00;;;1.87;;
47429;SDS011;33181;49.246;7.372;2022-10-22T04:20:08;3.77;;;1.83;;
47429;SDS011;33181;49.246;7.372;2022-10-22T04:22:35;2.37;;;1.90;;
47429;SDS011;33181;49.246;7.372;2022-10-22T04:25:01;4.30;;;2.07;;
47429;SDS011;33181;49.246;7.372;2022-10-22T04:27:32;3.50;;;2.00;;
47429;SDS011;33181;49.246;7.372;2022-10-22T04:29:59;2.80;;;1.80;;
47429;SDS011;33181;49.246;7.372;2022-10-22T04:32:25;5.33;;;1.90;;
47429;SDS011;33181;49.246;7.372;2022-10-22T04:34:51;9.13;;;1.90;;
47429;SDS011;33181;49.246;7.372;2022-10-22T04:37:18;2.60;;;1.83;;
47429;SDS011;33181;49.246;7.372;2022-10-22T04:39:44;2.80;;;1.80;;
47429;SDS011;33181;49.246;7.372;2022-10-22T04:42:09;5.07;;;1.90;;
47429;SDS011;33181;49.246;7.372;2022-10-22T04:44:35;5.03;;;1.90;;
47429;SDS011;33181;49.246;7.372;2022-10-22T04:47:01;2.50;;;2.00;;
47429;SDS011;33181;49.246;7.372;2022-10-22T04:49:27;4.47;;;1.90;;
47429;SDS011;33181;49.246;7.372;2022-10-22T04:51:52;4.97;;;2.20;;
47429;SDS011;33181;49.246;7.372;2022-10-22T04:54:18;3.70;;;2.30;;
47429;SDS011;33181;49.246;7.372;2022-10-22T04:56:44;3.27;;;2.40;;
47429;SDS011;33181;49.246;7.372;2022-10-22T04:59:10;3.73;;;2.30;;
47429;SDS011;33181;49.246;7.372;2022-10-22T05:01:37;4.93;;;2.20;;
47429;SDS011;33181;49.246;7.372;2022-10-22T05:04:06;3.00;;;2.10;;
47429;SDS011;33181;49.246;7.372;2022-10-22T05:06:35;2.83;;;2.27;;
47429;SDS011;33181;49.246;7.372;2022-10-22T05:09:05;3.97;;;2.50;;
47429;SDS011;33181;49.246;7.372;2022-10-22T05:11:37;6.23;;;2.20;;
47429;SDS011;33181;49.246;7.372;2022-10-22T05:14:10;2.23;;;1.73;;
47429;SDS011;33181;49.246;7.372;2022-10-22T05:16:36;3.93;;;2.00;;
47429;SDS011;33181;49.246;7.372;2022-10-22T05:19:02;2.47;;;2.13;;
47429;SDS011;33181;49.246;7.372;2022-10-22T05:21:29;3.90;;;2.30;;
47429;SDS011;33181;49.246;7.372;2022-10-22T05:23:56;3.90;;;1.90;;
47429;SDS011;33181;49.246;7.372;2022-10-22T05:26:24;3.60;;;2.70;;
47429;SDS011;33181;49.246;7.372;2022-10-22T05:28:51;6.30;;;4.37;;
47429;SDS011;33181;49.246;7.372;2022-10-22T05:31:17;8.57;;;6.00;;
47429;SDS011;33181;49.246;7.372;2022-10-22T05:33:44;4.90;;;4.40;;
47429;SDS011;33181;49.246;7.372;2022-10-22T05:36:12;5.50;;;3.40;;
47429;SDS011;33181;49.246;7.372;2022-10-22T05:38:41;3.77;;;3.03;;
47429;SDS011;33181;49.246;7.372;2022-10-22T05:41:14;4.20;;;3.53;;
47429;SDS011;33181;49.246;7.372;2022-10-22T05:43:43;5.20;;;3.50;;
47429;SDS011;33181;49.246;7.372;2022-10-22T05:46:10;3.90;;;3.30;;
47429;SDS011;33181;49.246;7.372;2022-10-22T05:48:39;7.07;;;4.70;;
47429;SDS011;33181;49.246;7.372;2022-10-22T05:51:10;6.70;;;3.83;;
47429;SDS011;33181;49.246;7.372;2022-10-22T05:53:38;7.13;;;3.47;;
47429;SDS011;33181;49.246;7.372;2022-10-22T05:56:08;4.53;;;2.90;;
47429;SDS011;33181;49.246;7.372;2022-10-22T05:58:39;6.53;;;3.23;;
47429;SDS011;33181;49.246;7.372;2022-10-22T06:03:47;6.57;;;2.77;;
47429;SDS011;33181;49.246;7.372;2022-10-22T06:08:46;3.80;;;2.83;;
47429;SDS011;33181;49.246;7.372;2022-10-22T06:11:14;5.30;;;2.70;;
47429;SDS011;33181;49.246;7.372;2022-10-22T06:13:42;3.67;;;2.90;;
47429;SDS011;33181;49.246;7.372;2022-10-22T06:16:11;3.50;;;2.97;;
47429;SDS011;33181;49.246;7.372;2022-10-22T06:18:37;3.80;;;2.90;;
47429;SDS011;33181;49.246;7.372;2022-10-22T06:21:04;5.20;;;3.50;;
47429;SDS011;33181;49.246;7.372;2022-10-22T06:23:37;9.53;;;3.37;;
47429;SDS011;33181;49.246;7.372;2022-10-22T06:26:04;4.23;;;3.37;;
47429;SDS011;33181;49.246;7.372;2022-10-22T06:28:30;4.07;;;2.90;;
47429;SDS011;33181;49.246;7.372;2022-10-22T06:30:57;4.10;;;3.00;;
47429;SDS011;33181;49.246;7.372;2022-10-22T06:33:24;4.70;;;2.90;;
47429;SDS011;33181;49.246;7.372;2022-10-22T06:35:52;5.17;;;3.73;;
47429;SDS011;33181;49.246;7.372;2022-10-22T06:38:18;5.53;;;3.60;;
47429;SDS011;33181;49.246;7.372;2022-10-22T06:40:44;7.40;;;4.33;;
47429;SDS011;33181;49.246;7.372;2022-10-22T06:43:11;6.47;;;3.80;;
47429;SDS011;33181;49.246;7.372;2022-10-22T06:45:37;5.70;;;4.43;;
47429;SDS011;33181;49.246;7.372;2022-10-22T06:48:03;5.67;;;4.17;;
47429;SDS011;33181;49.246;7.372;2022-10-22T06:50:29;4.73;;;3.40;;
47429;SDS011;33181;49.246;7.372;2022-10-22T06:52:56;7.03;;;3.47;;
47429;SDS011;33181;49.246;7.372;2022-10-22T06:55:22;5.63;;;3.90;;
47429;SDS011;33181;49.246;7.372;2022-10-22T06:57:47;5.60;;;4.07;;
47429;SDS011;33181;49.246;7.372;2022-10-22T07:00:13;5.53;;;4.17;;
47429;SDS011;33181;49.246;7.372;2022-10-22T07:02:39;5.63;;;4.20;;
47429;SDS011;33181;49.246;7.372;2022-10-22T07:05:05;6.03;;;4.30;;
47429;SDS011;33181;49.246;7.372;2022-10-22T07:07:32;8.50;;;4.73;;
47429;SDS011;33181;49.246;7.372;2022-10-22T07:09:57;6.20;;;5.17;;
47429;SDS011;33181;49.246;7.372;2022-10-22T07:12:23;7.80;;;4.90;;
47429;SDS011;33181;49.246;7.372;2022-10-22T07:14:49;7.80;;;5.00;;
47429;SDS011;33181;49.246;7.372;2022-10-22T07:17:15;7.73;;;4.87;;
47429;SDS011;33181;49.246;7.372;2022-10-22T07:19:41;5.77;;;4.63;;
47429;SDS011;33181;49.246;7.372;2022-10-22T07:22:06;7.97;;;4.93;;
47429;SDS011;33181;49.246;7.372;2022-10-22T07:24:32;9.53;;;5.20;;
47429;SDS011;33181;49.246;7.372;2022-10-22T07:26:58;7.90;;;5.60;;
47429;SDS011;33181;49.246;7.372;2022-10-22T07:29:24;15.57;;;6.67;;
47429;SDS011;33181;49.246;7.372;2022-10-22T07:31:49;8.10;;;4.90;;
47429;SDS011;33181;49.246;7.372;2022-10-22T07:34:15;8.43;;;5.70;;
47429;SDS011;33181;49.246;7.372;2022-10-22T07:36:41;7.87;;;5.27;;
47429;SDS011;33181;49.246;7.372;2022-10-22T07:39:07;9.40;;;5.90;;
47429;SDS011;33181;49.246;7.372;2022-10-22T07:41:33;7.90;;;5.80;;
47429;SDS011;33181;49.246;7.372;2022-10-22T07:43:58;14.50;;;5.60;;
47429;SDS011;33181;49.246;7.372;2022-10-22T07:46:24;6.50;;;5.30;;
47429;SDS011;33181;49.246;7.372;2022-10-22T07:48:51;9.93;;;5.30;;
47429;SDS011;33181;49.246;7.372;2022-10-22T07:51:17;8.27;;;5.03;;
47429;SDS011;33181;49.246;7.372;2022-10-22T07:53:42;7.63;;;4.70;;
47429;SDS011;33181;49.246;7.372;2022-10-22T07:56:08;6.50;;;4.60;;
47429;SDS011;33181;49.246;7.372;2022-10-22T07:58:34;8.23;;;5.53;;
47429;SDS011;33181;49.246;7.372;2022-10-22T08:01:00;17.53;;;7.60;;
47429;SDS011;33181;49.246;7.372;2022-10-22T08:03:29;8.30;;;4.80;;
47429;SDS011;33181;49.246;7.372;2022-10-22T08:05:56;6.17;;;3.63;;
47429;SDS011;33181;49.246;7.372;2022-10-22T08:08:22;22.40;;;11.27;;
47429;SDS011;33181;49.246;7.372;2022-10-22T08:10:50;24.73;;;9.03;;
47429;SDS011;33181;49.246;7.372;2022-10-22T08:13:17;19.07;;;9.50;;
47429;SDS011;33181;49.246;7.372;2022-10-22T08:15:44;8.97;;;5.30;;
47429;SDS011;33181;49.246;7.372;2022-10-22T08:18:10;4.43;;;3.50;;
47429;SDS011;33181;49.246;7.372;2022-10-22T08:20:37;4.20;;;2.87;;
47429;SDS011;33181;49.246;7.372;2022-10-22T08:23:03;5.33;;;2.73;;
47429;SDS011;33181;49.246;7.372;2022-10-22T08:25:29;5.47;;;2.90;;
47429;SDS011;33181;49.246;7.372;2022-10-22T08:27:55;5.20;;;2.93;;
47429;SDS011;33181;49.246;7.372;2022-10-22T08:30:21;4.43;;;3.00;;
47429;SDS011;33181;49.246;7.372;2022-10-22T08:32:46;7.13;;;2.60;;
47429;SDS011;33181;49.246;7.372;2022-10-22T08:35:12;4.57;;;2.70;;
47429;SDS011;33181;49.246;7.372;2022-10-22T08:37:38;6.20;;;2.33;;
47429;SDS011;33181;49.246;7.372;2022-10-22T08:40:04;7.37;;;2.40;;
47429;SDS011;33181;49.246;7.372;2022-10-22T08:45:49;4.43;;;2.20;;
47429;SDS011;33181;49.246;7.372;2022-10-22T08:48:56;5.57;;;2.50;;
47429;SDS011;33181;49.246;7.372;2022-10-22T08:51:30;3.30;;;2.43;;
47429;SDS011;33181;49.246;7.372;2022-10-22T08:54:25;4.00;;;2.40;;
47429;SDS011;33181;49.246;7.372;2022-10-22T09:02:31;5.10;;;2.47;;
47429;SDS011;33181;49.246;7.372;2022-10-22T09:07:55;4.80;;;2.57;;
47429;SDS011;33181;49.246;7.372;2022-10-22T09:10:23;5.27;;;3.30;;
47429;SDS011;33181;49.246;7.372;2022-10-22T09:12:55;8.43;;;2.63;;
47429;SDS011;33181;49.246;7.372;2022-10-22T09:15:21;4.63;;;3.40;;
47429;SDS011;33181;49.246;7.372;2022-10-22T09:20:32;6.30;;;3.00;;
47429;SDS011;33181;49.246;7.372;2022-10-22T09:25:51;3.90;;;2.30;;
47429;SDS011;33181;49.246;7.372;2022-10-22T09:28:17;4.93;;;2.50;;
47429;SDS011;33181;49.246;7.372;2022-10-22T09:30:43;4.93;;;2.87;;
47429;SDS011;33181;49.246;7.372;2022-10-22T09:33:12;10.57;;;2.97;;
47429;SDS011;33181;49.246;7.372;2022-10-22T09:35:56;11.40;;;6.97;;
47429;SDS011;33181;49.246;7.372;2022-10-22T09:38:31;4.00;;;2.90;;
47429;SDS011;33181;49.246;7.372;2022-10-22T09:41:03;8.20;;;3.10;;
47429;SDS011;33181;49.246;7.372;2022-10-22T09:43:30;3.60;;;2.50;;
47429;SDS011;33181;49.246;7.372;2022-10-22T09:45:59;4.47;;;2.50;;
47429;SDS011;33181;49.246;7.372;2022-10-22T09:48:29;4.90;;;2.33;;
47429;SDS011;33181;49.246;7.372;2022-10-22T09:53:57;4.63;;;2.50;;
47429;SDS011;33181;49.246;7.372;2022-10-22T09:56:26;8.10;;;2.50;;
47429;SDS011;33181;49.246;7.372;2022-10-22T09:59:05;5.53;;;2.40;;
47429;SDS011;33181;49.246;7.372;2022-10-22T10:01:42;7.33;;;2.40;;
47429;SDS011;33181;49.246;7.372;2022-10-22T10:04:10;4.67;;;2.00;;
47429;SDS011;33181;49.246;7.372;2022-10-22T10:06:41;6.83;;;2.40;;
47429;SDS011;33181;49.246;7.372;2022-10-22T10:09:21;8.33;;;2.57;;
47429;SDS011;33181;49.246;7.372;2022-10-22T10:11:58;5.67;;;2.30;;
47429;SDS011;33181;49.246;7.372;2022-10-22T10:17:30;9.83;;;2.40;;
47429;SDS011;33181;49.246;7.372;2022-10-22T10:23:30;8.57;;;2.57;;
47429;SDS011;33181;49.246;7.372;2022-10-22T10:26:23;5.50;;;2.30;;
47429;SDS011;33181;49.246;7.372;2022-10-22T10:32:54;3.43;;;2.00;;
47429;SDS011;33181;49.246;7.372;2022-10-22T10:36:11;4.67;;;1.80;;
47429;SDS011;33181;49.246;7.372;2022-10-22T10:39:03;5.80;;;2.40;;
47429;SDS011;33181;49.246;7.372;2022-10-22T10:44:13;5.37;;;2.50;;
47429;SDS011;33181;49.246;7.372;2022-10-22T10:49:18;4.73;;;2.57;;
47429;SDS011;33181;49.246;7.372;2022-10-22T10:52:12;4.30;;;2.10;;
47429;SDS011;33181;49.246;7.372;2022-10-22T10:55:00;6.07;;;2.17;;
47429;SDS011;33181;49.246;7.372;2022-10-22T11:00:52;5.53;;;2.27;;
47429;SDS011;33181;49.246;7.372;2022-10-22T11:03:33;6.03;;;2.13;;
47429;SDS011;33181;49.246;7.372;2022-10-22T11:06:16;4.63;;;2.40;;
47429;SDS011;33181;49.246;7.372;2022-10-22T11:08:46;4.23;;;2.23;;
47429;SDS011;33181;49.246;7.372;2022-10-22T11:11:29;5.43;;;2.30;;
47429;SDS011;33181;49.246;7.372;2022-10-22T11:14:16;8.53;;;2.70;;
47429;SDS011;33181;49.246;7.372;2022-10-22T11:17:13;11.23;;;2.77;;
47429;SDS011;33181;49.246;7.372;2022-10-22T11:19:57;7.03;;;2.50;;
47429;SDS011;33181;49.246;7.372;2022-10-22T11:22:27;4.37;;;2.10;;
47429;SDS011;33181;49.246;7.372;2022-10-22T11:27:44;4.40;;;2.30;;
47429;SDS011;33181;49.246;7.372;2022-10-22T11:30:25;8.20;;;2.57;;
47429;SDS011;33181;49.246;7.372;2022-10-22T11:32:58;4.53;;;2.27;;
47429;SDS011;33181;49.246;7.372;2022-10-22T11:35:32;6.00;;;2.23;;
47429;SDS011;33181;49.246;7.372;2022-10-22T11:38:01;5.60;;;2.73;;
47429;SDS011;33181;49.246;7.372;2022-10-22T11:40:31;4.83;;;2.20;;
47429;SDS011;33181;49.246;7.372;2022-10-22T11:43:05;4.80;;;2.10;;
47429;SDS011;33181;49.246;7.372;2022-10-22T11:45:35;3.50;;;2.07;;
47429;SDS011;33181;49.246;7.372;2022-10-22T11:50:54;5.83;;;2.27;;
47429;SDS011;33181;49.246;7.372;2022-10-22T11:55:50;3.40;;;2.20;;
47429;SDS011;33181;49.246;7.372;2022-10-22T12:06:19;3.63;;;2.10;;
47429;SDS011;33181;49.246;7.372;2022-10-22T12:19:39;5.20;;;1.90;;
47429;SDS011;33181;49.246;7.372;2022-10-22T12:22:32;3.63;;;1.70;;
47429;SDS011;33181;49.246;7.372;2022-10-22T12:25:01;2.87;;;1.80;;
47429;SDS011;33181;49.246;7.372;2022-10-22T12:27:41;7.40;;;2.13;;
47429;SDS011;33181;49.246;7.372;2022-10-22T12:30:23;7.07;;;2.00;;
47429;SDS011;33181;49.246;7.372;2022-10-22T12:32:57;2.90;;;1.90;;
47429;SDS011;33181;49.246;7.372;2022-10-22T12:35:25;3.50;;;1.90;;
47429;SDS011;33181;49.246;7.372;2022-10-22T12:37:55;7.40;;;2.30;;
47429;SDS011;33181;49.246;7.372;2022-10-22T12:40:32;6.17;;;2.50;;
47429;SDS011;33181;49.246;7.372;2022-10-22T12:43:00;6.20;;;2.23;;
47429;SDS011;33181;49.246;7.372;2022-10-22T12:45:35;7.43;;;2.00;;
47429;SDS011;33181;49.246;7.372;2022-10-22T12:48:02;9.20;;;2.27;;
47429;SDS011;33181;49.246;7.372;2022-10-22T12:50:38;9.37;;;2.57;;
47429;SDS011;33181;49.246;7.372;2022-10-22T12:53:11;2.87;;;1.90;;
47429;SDS011;33181;49.246;7.372;2022-10-22T12:55:43;4.57;;;2.20;;
47429;SDS011;33181;49.246;7.372;2022-10-22T12:58:15;4.47;;;1.97;;
47429;SDS011;33181;49.246;7.372;2022-10-22T13:00:52;5.00;;;2.23;;
47429;SDS011;33181;49.246;7.372;2022-10-22T13:03:30;6.63;;;2.23;;
47429;SDS011;33181;49.246;7.372;2022-10-22T13:06:12;3.30;;;2.00;;
47429;SDS011;33181;49.246;7.372;2022-10-22T13:11:37;7.37;;;2.97;;
47429;SDS011;33181;49.246;7.372;2022-10-22T13:14:30;5.50;;;2.20;;
47429;SDS011;33181;49.246;7.372;2022-10-22T13:25:34;4.90;;;2.47;;
47429;SDS011;33181;49.246;7.372;2022-10-22T13:30:34;4.67;;;2.50;;
47429;SDS011;33181;49.246;7.372;2022-10-22T13:33:03;7.50;;;2.40;;
47429;SDS011;33181;49.246;7.372;2022-10-22T13:35:43;5.50;;;2.50;;
47429;SDS011;33181;49.246;7.372;2022-10-22T13:38:11;5.10;;;2.30;;
47429;SDS011;33181;49.246;7.372;2022-10-22T13:40:46;4.87;;;2.27;;
47429;SDS011;33181;49.246;7.372;2022-10-22T13:43:12;4.23;;;2.07;;
47429;SDS011;33181;49.246;7.372;2022-10-22T13:45:38;5.40;;;2.23;;
47429;SDS011;33181;49.246;7.372;2022-10-22T13:48:04;8.27;;;2.50;;
47429;SDS011;33181;49.246;7.372;2022-10-22T13:50:33;5.83;;;2.23;;
47429;SDS011;33181;49.246;7.372;2022-10-22T13:52:59;6.30;;;2.60;;
47429;SDS011;33181;49.246;7.372;2022-10-22T13:55:26;5.03;;;2.23;;
47429;SDS011;33181;49.246;7.372;2022-10-22T13:57:59;4.00;;;2.07;;
47429;SDS011;33181;49.246;7.372;2022-10-22T14:00:34;6.40;;;2.50;;
47429;SDS011;33181;49.246;7.372;2022-10-22T14:03:05;5.47;;;2.30;;
47429;SDS011;33181;49.246;7.372;2022-10-22T14:05:37;4.53;;;2.30;;
47429;SDS011;33181;49.246;7.372;2022-10-22T14:08:04;6.30;;;2.30;;
47429;SDS011;33181;49.246;7.372;2022-10-22T14:10:42;6.13;;;2.67;;
47429;SDS011;33181;49.246;7.372;2022-10-22T14:13:09;3.67;;;2.40;;
47429;SDS011;33181;49.246;7.372;2022-10-22T14:15:35;5.10;;;2.30;;
47429;SDS011;33181;49.246;7.372;2022-10-22T14:18:02;5.50;;;2.40;;
47429;SDS011;33181;49.246;7.372;2022-10-22T14:20:32;3.73;;;2.20;;
47429;SDS011;33181;49.246;7.372;2022-10-22T14:23:23;5.07;;;2.90;;
47429;SDS011;33181;49.246;7.372;2022-10-22T14:25:49;7.63;;;2.37;;
47429;SDS011;33181;49.246;7.372;2022-10-22T14:28:15;6.23;;;2.50;;
47429;SDS011;33181;49.246;7.372;2022-10-22T14:30:42;8.73;;;2.77;;
47429;SDS011;33181;49.246;7.372;2022-10-22T14:33:15;3.40;;;2.20;;
47429;SDS011;33181;49.246;7.372;2022-10-22T14:35:44;4.73;;;2.20;;
47429;SDS011;33181;49.246;7.372;2022-10-22T14:38:12;4.87;;;2.40;;
47429;SDS011;33181;49.246;7.372;2022-10-22T14:40:38;6.97;;;2.40;;
47429;SDS011;33181;49.246;7.372;2022-10-22T14:43:08;8.33;;;2.30;;
47429;SDS011;33181;49.246;7.372;2022-10-22T14:45:42;4.87;;;2.77;;
47429;SDS011;33181;49.246;7.372;2022-10-22T14:48:07;6.73;;;2.37;;
47429;SDS011;33181;49.246;7.372;2022-10-22T14:50:33;6.07;;;2.53;;
47429;SDS011;33181;49.246;7.372;2022-10-22T14:52:59;3.80;;;2.50;;
47429;SDS011;33181;49.246;7.372;2022-10-22T14:55:25;7.00;;;3.20;;
47429;SDS011;33181;49.246;7.372;2022-10-22T14:57:51;4.60;;;2.53;;
47429;SDS011;33181;49.246;7.372;2022-10-22T15:00:18;6.63;;;2.63;;
47429;SDS011;33181;49.246;7.372;2022-10-22T15:02:45;7.20;;;2.37;;
47429;SDS011;33181;49.246;7.372;2022-10-22T15:05:12;10.07;;;3.40;;
47429;SDS011;33181;49.246;7.372;2022-10-22T15:07:38;8.70;;;3.33;;
47429;SDS011;33181;49.246;7.372;2022-10-22T15:10:05;9.40;;;3.10;;
47429;SDS011;33181;49.246;7.372;2022-10-22T15:12:32;3.90;;;2.40;;
47429;SDS011;33181;49.246;7.372;2022-10-22T15:14:59;4.73;;;2.70;;
47429;SDS011;33181;49.246;7.372;2022-10-22T15:17:25;5.20;;;2.43;;
47429;SDS011;33181;49.246;7.372;2022-10-22T15:19:50;5.97;;;2.50;;
47429;SDS011;33181;49.246;7.372;2022-10-22T15:22:17;4.83;;;2.93;;
47429;SDS011;33181;49.246;7.372;2022-10-22T15:24:43;6.27;;;3.27;;
47429;SDS011;33181;49.246;7.372;2022-10-22T15:27:13;6.20;;;3.20;;
47429;SDS011;33181;49.246;7.372;2022-10-22T15:29:40;8.77;;;3.60;;
47429;SDS011;33181;49.246;7.372;2022-10-22T15:32:06;7.60;;;3.77;;
47429;SDS011;33181;49.246;7.372;2022-10-22T15:34:35;7.13;;;4.73;;
47429;SDS011;33181;49.246;7.372;2022-10-22T15:37:04;5.70;;;3.40;;
47429;SDS011;33181;49.246;7.372;2022-10-22T15:39:38;5.90;;;3.50;;
47429;SDS011;33181;49.246;7.372;2022-10-22T15:42:05;6.67;;;3.00;;
47429;SDS011;33181;49.246;7.372;2022-10-22T15:44:32;6.10;;;3.50;;
47429;SDS011;33181;49.246;7.372;2022-10-22T15:46:58;7.30;;;3.70;;
47429;SDS011;33181;49.246;7.372;2022-10-22T15:49:28;14.83;;;4.00;;
47429;SDS011;33181;49.246;7.372;2022-10-22T15:51:54;7.57;;;3.77;;
47429;SDS011;33181;49.246;7.372;2022-10-22T15:54:21;8.90;;;4.23;;
47429;SDS011;33181;49.246;7.372;2022-10-22T15:56:52;7.57;;;3.90;;
47429;SDS011;33181;49.246;7.372;2022-10-22T15:59:19;5.73;;;4.43;;
47429;SDS011;33181;49.246;7.372;2022-10-22T16:01:45;7.50;;;4.40;;
47429;SDS011;33181;49.246;7.372;2022-10-22T16:04:11;7.30;;;4.10;;
47429;SDS011;33181;49.246;7.372;2022-10-22T16:09:10;6.20;;;3.93;;
47429;SDS011;33181;49.246;7.372;2022-10-22T16:11:41;6.37;;;3.90;;
47429;SDS011;33181;49.246;7.372;2022-10-22T16:14:08;6.70;;;4.90;;
47429;SDS011;33181;49.246;7.372;2022-10-22T16:16:36;6.00;;;4.43;;
47429;SDS011;33181;49.246;7.372;2022-10-22T16:19:06;11.37;;;4.57;;
47429;SDS011;33181;49.246;7.372;2022-10-22T16:21:34;8.40;;;4.50;;
47429;SDS011;33181;49.246;7.372;2022-10-22T16:24:00;5.80;;;4.63;;
47429;SDS011;33181;49.246;7.372;2022-10-22T16:26:26;6.40;;;4.70;;
47429;SDS011;33181;49.246;7.372;2022-10-22T16:28:52;5.33;;;4.70;;
47429;SDS011;33181;49.246;7.372;2022-10-22T16:31:18;5.93;;;4.70;;
47429;SDS011;33181;49.246;7.372;2022-10-22T16:33:44;6.10;;;4.23;;
47429;SDS011;33181;49.246;7.372;2022-10-22T16:36:15;6.10;;;4.33;;
47429;SDS011;33181;49.246;7.372;2022-10-22T16:38:43;8.67;;;4.70;;
47429;SDS011;33181;49.246;7.372;2022-10-22T16:43:47;6.20;;;4.50;;
47429;SDS011;33181;49.246;7.372;2022-10-22T16:46:15;8.40;;;4.33;;
47429;SDS011;33181;49.246;7.372;2022-10-22T16:48:47;8.60;;;5.33;;
47429;SDS011;33181;49.246;7.372;2022-10-22T16:51:16;13.63;;;6.30;;
47429;SDS011;33181;49.246;7.372;2022-10-22T16:53:47;11.63;;;8.53;;
47429;SDS011;33181;49.246;7.372;2022-10-22T16:56:15;15.13;;;10.80;;
47429;SDS011;33181;49.246;7.372;2022-10-22T16:58:45;10.80;;;8.93;;
47429;SDS011;33181;49.246;7.372;2022-10-22T17:01:17;16.23;;;8.30;;
47429;SDS011;33181;49.246;7.372;2022-10-22T17:03:45;14.97;;;7.80;;